• Join FlightAware (Why Join?)
  • Login
  • US Flag 
06:25AM EDT


 

Airport Tracker/Info


-or-


 

Live Flight TrackerFlight Track Log ✈ UAL395 ✈ 26-Jun-2013 ✈ KORD - KSAN

Flight Track Log - Related Links

Times and Time Zones

All times are in EDT time to prevent confusion due to time zone crossing. See the UAL395 flight status page for this flight to view local times or setup timezone preferences in your user account.

Time Position Orientation Groundspeed Altitude Reporting Facility
EDT Latitude Longitude Course Direction KTS MPH feet Rate Location/Type
08:01PM 41.9833 -87.9833 260° West 203 234 2,300  Level Chicago TRACON
08:02PM 42.0000 -88.0667 285° West 245 282 4,400 2,280 Climbing Chicago TRACON
08:03PM 41.9078 -88.5425 261° West  Level FlightAware Approximate
08:03PM 42.0306 -88.1497 296° West 254 292 7,200  Level Chicago Center
08:04PM 41.8887 -88.7044 261° West  Level FlightAware Approximate
08:04PM 42.0744 -88.2319 306° West 271 312 10,000  Level Chicago Center
08:05PM 41.8701 -88.8662 261° West  Level FlightAware Approximate
08:06PM 41.8515 -89.0280 261° West  Level FlightAware Approximate
08:06PM 42.0847 -88.3525 277° West 293 337 11,900  Level Chicago Center
08:07PM 41.8325 -89.1898 260° West  Level FlightAware Approximate
08:07PM 42.0589 -88.4775 254° West 350 403 12,500  Level Chicago Center
08:08PM 42.0197 -88.6131 249° West 386 444 13,900 1,320 Climbing Chicago Center
08:09PM 41.9786 -88.7564 249° West 408 470 15,300 1,440 Climbing Chicago Center
08:10PM 41.9308 -88.9297 250° West 417 480 16,900 1,560 Climbing Chicago Center
08:11PM 41.9097 -89.0864 260° West 431 496 18,500 1,440 Climbing Chicago Center
08:12PM 41.8869 -89.2408 259° West 427 491 19,900 1,140 Climbing Chicago Center
08:13PM 41.8658 -89.4003 260° West 434 499 20,900 1,140 Climbing Chicago Center
08:14PM 41.8433 -89.5619 259° West 441 507 22,300 1,200 Climbing Chicago Center
08:15PM 41.8178 -89.7531 260° West 438 504 23,500 900 Climbing Chicago Center
08:16PM 41.7919 -89.9003 257° West 450 518 24,200 720 Climbing Chicago Center
08:17PM 41.7597 -90.0633 255° West 454 522 25,100 1,200 Climbing Chicago Center
08:18PM 41.7222 -90.2567 255° West 451 519 26,700 1,260 Climbing Chicago Center
08:19PM 41.6886 -90.4200 255° West 453 521 27,800 960 Climbing Chicago Center
08:20PM 41.6586 -90.5800 256° West 447 514 28,800 1,020 Climbing Chicago Center
08:21PM 41.6269 -90.7353 255° West 445 512 30,000 1,080 Climbing Chicago Center
08:22PM 41.5950 -90.8925 255° West 442 509 31,100 1,140 Climbing Chicago Center
08:23PM 41.5572 -91.0792 255° West 437 503 32,400 1,080 Climbing Chicago Center
08:24PM 41.5256 -91.2333 255° West 435 501 33,400 720 Climbing Chicago Center
08:25PM 41.4936 -91.3881 255° West 434 499 34,000 240 Climbing Chicago Center
08:26PM 41.4606 -91.5447 254° West 441 507 34,000  Level Chicago Center
08:27PM 41.4278 -91.7036 255° West 447 514 34,000  Level Chicago Center
08:28PM 41.3886 -91.8925 255° West 444 511 34,000  Level Chicago Center
08:29PM 41.3556 -92.0467 254° West 439 505 34,000  Level Chicago Center
08:30PM 41.3211 -92.2025 254° West 441 507 34,000  Level Chicago Center
08:31PM 41.2869 -92.3617 254° West 446 513 34,000  Level Chicago Center
08:32PM 41.2514 -92.5228 254° West 441 507 34,000  Level Chicago Center
08:33PM 41.2172 -92.6775 254° West 441 507 34,000  Level Chicago Center
08:34PM 41.1769 -92.8642 254° West 443 510 34,000  Level Chicago Center
08:36PM 41.1425 -93.0203 254° West 445 512 34,000  Level Chicago Center
08:37PM 41.1072 -93.1769 253° West 448 516 34,100  Climbing Chicago Center
08:37PM 41.0864 -93.2672 253° West 441 507 34,000 -120 Descending Minneapolis Center
08:38PM 41.0511 -93.4244 253° West 446 513 34,000  Level Minneapolis Center
08:39PM 41.0089 -93.6128 254° West 450 518 34,000  Level Minneapolis Center
08:40PM 40.9717 -93.7689 253° West 451 519 34,000  Level Minneapolis Center
08:41PM 40.9339 -93.9283 253° West 456 525 34,000  Level Minneapolis Center
08:42PM 40.8975 -94.0847 253° West 454 522 34,000  Level Minneapolis Center
08:43PM 40.8606 -94.2406 253° West 451 519 34,000  Level Minneapolis Center
08:44PM 40.8167 -94.4292 253° West 452 520 34,000  Level Minneapolis Center
08:45PM 40.7803 -94.5769 252° West 452 520 34,000  Level Minneapolis Center
08:46PM 40.7411 -94.7361 252° West 453 521 34,000  Level Minneapolis Center
08:47PM 40.7031 -94.8947 252° West 453 521 34,000  Level Minneapolis Center
08:49PM 40.6567 -95.0839 252° West 450 518 34,000  Level Minneapolis Center
08:50PM 40.6189 -95.2419 253° West 451 519 34,000  Level Minneapolis Center
08:51PM 40.5794 -95.3989 252° West 450 518 34,000  Level Minneapolis Center
08:52PM 40.5397 -95.5611 252° West 457 526 34,000  Level Minneapolis Center
08:53PM 40.4992 -95.7225 252° West 462 532 34,000  Level Minneapolis Center
08:54PM 40.4589 -95.8814 252° West 459 528 34,000  Level Minneapolis Center
08:55PM 40.4111 -96.0686 252° West 452 520 34,000  Level Minneapolis Center
08:56PM 40.3711 -96.2294 252° West 457 526 34,000  Level Minneapolis Center
08:57PM 40.3294 -96.3872 251° West 458 527 34,000  Level Minneapolis Center
08:58PM 40.2886 -96.5467 251° West 460 529 34,000  Level Minneapolis Center
08:59PM 40.2464 -96.7053 251° West 460 529 34,000  Level Minneapolis Center
09:00PM 40.2050 -96.8642 251° West 460 529 34,000  Level Minneapolis Center
09:01PM 40.1631 -97.0236 251° West 462 532 34,000  Level Minneapolis Center
09:02PM 40.1125 -97.2136 251° West 462 532 34,000  Level Minneapolis Center
09:03PM 40.0747 -97.3550 251° West 463 533 34,000  Level Minneapolis Center
09:04PM 40.0228 -97.5475 251° West 466 536 34,000  Level Minneapolis Center
09:05PM 39.9794 -97.7058 250° West 465 535 34,000  Level Minneapolis Center
09:06PM 39.9450 -97.8303 250° West 460 529 34,000  Level Minneapolis Center
09:07PM 39.8928 -98.0197 250° West 461 531 34,000  Level Minneapolis Center
09:08PM 39.8497 -98.1783 251° West 463 533 34,000  Level Minneapolis Center
09:09PM 39.8053 -98.3367 250° West 464 534 34,000  Level Minneapolis Center
09:10PM 39.7619 -98.4933 250° West 462 532 34,000  Level Minneapolis Center
09:11PM 39.7086 -98.6831 250° West 463 533 34,000  Level Minneapolis Center
09:12PM 39.6642 -98.8394 250° West 462 532 34,000  Level Minneapolis Center
09:13PM 39.6458 -98.9017 249° West 461 531 34,000  Level Denver Center
09:14PM 39.6011 -99.0589 250° West 463 533 34,000  Level Denver Center
09:15PM 39.5461 -99.2486 249° West 467 537 34,000  Level Denver Center
09:16PM 39.5003 -99.4083 250° West 470 541 34,000  Level Denver Center
09:17PM 39.4511 -99.5731 249° West 468 539 34,100  Climbing Denver Center
09:18PM 39.4081 -99.7242 250° West 467 537 34,000 -60 Descending Denver Center
09:19PM 39.3631 -99.8736 249° West 466 536 34,000  Level Denver Center
09:20PM 39.3108 -100.0494 249° West 469 540 34,000  Level Denver Center
09:21PM 39.2653 -100.2008 249° West 471 542 34,000  Level Denver Center
09:22PM 39.2194 -100.3528 249° West 473 544 34,100  Climbing Denver Center
09:23PM 39.1642 -100.5278 248° West 472 543 34,000 -60 Descending Denver Center
09:24PM 39.1097 -100.7011 248° West 469 540 34,000  Level Denver Center
09:25PM 39.0636 -100.8494 248° West 467 537 34,000  Level Denver Center
09:26PM 39.0108 -101.0142 248° West 466 536 34,000  Level Denver Center
09:28PM 38.9489 -101.2111 248° West 466 536 34,000  Level Denver Center
09:29PM 38.9019 -101.3567 248° West 464 534 34,000  Level Denver Center
09:30PM 38.8467 -101.5272 247° West 465 535 34,000  Level Denver Center
09:31PM 38.7992 -101.6739 247° West 465 535 34,000  Level Denver Center
09:32PM 38.7433 -101.8436 247° West 466 536 34,000  Level Denver Center
09:33PM 38.6953 -101.9914 247° West 470 541 34,000  Level Denver Center
09:34PM 38.6394 -102.1617 247° West 467 537 34,000  Level Denver Center
09:35PM 38.5900 -102.3081 247° West 470 541 34,000  Level Denver Center
09:36PM 38.5333 -102.4789 247° West 469 540 34,000  Level Denver Center
09:37PM 38.4831 -102.6250 246° West 470 541 34,000  Level Denver Center
09:38PM 38.4419 -102.7475 247° West 471 542 34,000  Level Denver Center
09:39PM 38.3750 -102.9431 246° West 473 544 34,000  Level Denver Center
09:40PM 38.3258 -103.0900 247° West 473 544 34,000  Level Denver Center
09:41PM 38.2467 -103.3211 246° West 471 542 34,000  Level Denver Center
09:42PM 38.1958 -103.4675 246° West 475 547 34,000  Level Denver Center
09:43PM 38.1367 -103.6367 246° West 469 540 34,000  Level Denver Center
09:44PM 38.0853 -103.7833 246° West 475 547 34,000  Level Denver Center
09:45PM 38.0264 -103.9531 246° West 474 545 34,000  Level Denver Center
09:47PM 37.9753 -104.0981 246° West 474 545 34,000  Level Denver Center
09:48PM 37.9156 -104.2678 246° West 476 548 34,000  Level Denver Center
09:49PM 37.8636 -104.4114 245° Southwest 474 545 34,000  Level Denver Center
09:50PM 37.8039 -104.5797 246° West 473 544 34,000  Level Denver Center
09:51PM 37.7511 -104.7242 245° Southwest 475 547 34,000  Level Denver Center
09:52PM 37.6892 -104.8928 245° Southwest 475 547 34,000  Level Denver Center
09:53PM 37.6375 -105.0367 246° West 473 544 34,000  Level Denver Center
09:54PM 37.5758 -105.2042 245° Southwest 472 543 34,000  Level Denver Center
09:55PM 37.5228 -105.3497 245° Southwest 475 547 34,000  Level Denver Center
09:56PM 37.4617 -105.5164 245° Southwest 470 541 34,000  Level Denver Center
09:57PM 37.4058 -105.6594 244° Southwest 475 547 34,000  Level Denver Center
09:58PM 37.3544 -105.8033 246° West 473 544 34,000  Level Denver Center
09:59PM 37.2933 -105.9719 246° West 473 544 34,000  Level Denver Center
10:00PM 37.2400 -106.1167 245° Southwest 477 549 34,000  Level Denver Center
10:01PM 37.1828 -106.2853 247° West 472 543 34,000  Level Denver Center
10:02PM 37.1378 -106.4039 245° Southwest 473 544 34,000  Level Denver Center
10:03PM 37.0678 -106.5919 245° Southwest 467 537 34,000  Level Denver Center
10:04PM 37.0161 -106.7342 246° West 469 540 34,000  Level Denver Center
10:05PM 36.9561 -106.8989 246° West 468 539 34,000  Level Denver Center
10:06PM 36.9039 -107.0392 245° Southwest 465 535 34,000  Level Denver Center
10:07PM 36.8519 -107.1783 245° Southwest 463 533 34,000  Level Denver Center
10:08PM 36.7889 -107.3431 244° Southwest 469 540 34,000  Level Denver Center
10:09PM 36.7372 -107.4828 245° Southwest 465 535 34,000  Level Denver Center
10:10PM 36.6761 -107.6483 245° Southwest 468 539 34,000  Level Denver Center
10:11PM 36.6225 -107.7903 245° Southwest 472 543 34,000  Level Denver Center
10:12PM 36.5594 -107.9522 244° Southwest 466 536 34,000  Level Denver Center
10:13PM 36.5061 -108.0925 245° Southwest 467 537 34,000  Level Denver Center
10:14PM 36.4436 -108.2567 245° Southwest 470 541 34,000  Level Denver Center
10:15PM 36.3892 -108.3958 244° Southwest 469 540 34,000  Level Denver Center
10:16PM 36.3447 -108.5133 245° Southwest 471 542 34,000  Level Denver Center
10:17PM 36.2728 -108.6978 244° Southwest 468 539 34,000  Level Denver Center
10:18PM 36.2111 -108.8589 245° Southwest 469 540 34,000  Level Denver Center
10:20PM 36.1561 -108.9975 244° Southwest 477 549 34,000  Level Denver Center
10:21PM 36.0908 -109.1564 243° Southwest 474 545 34,000  Level Denver Center
10:22PM 36.0361 -109.2925 244° Southwest 466 536 34,000  Level Denver Center
10:23PM 35.9714 -109.4533 244° Southwest 469 540 34,000  Level Denver Center
10:24PM 35.9153 -109.5922 244° Southwest 472 543 34,000  Level Denver Center
10:25PM 35.8511 -109.7550 244° Southwest 471 542 34,000  Level Denver Center
10:26PM 35.7933 -109.8931 243° Southwest 472 543 34,000  Level Denver Center
10:27PM 35.7281 -110.0556 244° Southwest 473 544 34,000  Level Denver Center
10:28PM 35.6658 -110.2078 243° Southwest 478 550 34,000  Level Denver Center
10:29PM 35.6142 -110.3350 243° Southwest 475 547 34,000  Level Denver Center
10:29PM 35.5836 -110.4083 243° Southwest 477 549 34,000  Level Los Angeles Center
10:30PM 35.5247 -110.5422 242° Southwest 478 550 34,000  Level Albuquerque Center
10:31PM 35.4678 -110.6803 243° Southwest 475 547 34,000  Level Albuquerque Center
10:32PM 35.3989 -110.8403 242° Southwest 475 547 34,000  Level Albuquerque Center
10:33PM 35.3425 -110.9794 244° Southwest 476 548 34,000  Level Albuquerque Center
10:34PM 35.2786 -111.1394 244° Southwest 480 552 34,000  Level Albuquerque Center
10:35PM 35.2175 -111.2831 243° Southwest 479 551 34,000  Level Albuquerque Center
10:36PM 35.1569 -111.4264 243° Southwest 477 549 34,000  Level Albuquerque Center
10:37PM 35.0964 -111.5678 242° Southwest 474 545 34,000  Level Albuquerque Center
10:38PM 35.0364 -111.7100 243° Southwest 473 544 34,000  Level Albuquerque Center
10:39PM 34.9694 -111.8639 242° Southwest 470 541 34,000  Level Albuquerque Center
10:40PM 34.9092 -112.0056 243° Southwest 471 542 34,000  Level Albuquerque Center
10:41PM 34.8483 -112.1458 242° Southwest 470 541 34,000  Level Albuquerque Center
10:42PM 34.7861 -112.2875 242° Southwest 474 545 34,000  Level Albuquerque Center
10:43PM 34.7236 -112.4300 242° Southwest 477 549 34,000  Level Albuquerque Center
10:45PM 34.6761 -112.5792 249° West 477 549 34,000  Level Albuquerque Center
10:46PM 34.6356 -112.7339 252° West 479 551 34,000  Level Albuquerque Center
10:47PM 34.5861 -112.9186 252° West 480 552 34,000  Level Albuquerque Center
10:48PM 34.5450 -113.0725 252° West 480 552 34,000  Level Albuquerque Center
10:49PM 34.5042 -113.2267 252° West 482 555 34,000  Level Albuquerque Center
10:50PM 34.4617 -113.3819 252° West 484 557 34,000  Level Albuquerque Center
10:51PM 34.4175 -113.5442 252° West 483 556 34,000  Level Albuquerque Center
10:52PM 34.3750 -113.6956 251° West 486 559 34,000  Level Albuquerque Center
10:53PM 34.3325 -113.8506 252° West 485 558 34,000  Level Albuquerque Center
10:54PM 34.2894 -114.0056 251° West 484 557 34,000 -300 Level Albuquerque Center
10:55PM 34.2472 -114.1597 252° West 484 557 33,400 -840 Descending Albuquerque Center
10:56PM 34.1961 -114.3453 252° West 483 556 32,300 -1,080 Descending Albuquerque Center
10:56PM 34.1711 -114.4378 252° West 485 558 31,600 -1,020 Descending Los Angeles Center
10:57PM 34.1281 -114.5922 251° West 488 562 30,600 -780 Descending Los Angeles Center
10:59PM 34.0756 -114.7439 247° West 495 570 30,000 -300 Descending Los Angeles Center
11:00PM 34.0117 -114.8881 242° Southwest 492 566 30,000  Level Los Angeles Center
11:01PM 33.9356 -115.0594 242° Southwest 486 559 30,000  Level Los Angeles Center
11:02PM 33.8711 -115.2039 242° Southwest 490 564 30,000  Level Los Angeles Center
11:03PM 33.8081 -115.3478 242° Southwest 489 563 30,000  Level Los Angeles Center
11:04PM 33.7433 -115.4917 242° Southwest 491 565 30,000  Level Los Angeles Center
11:05PM 33.6786 -115.6333 241° Southwest 486 559 30,000 -1,440 Level Los Angeles Center
11:06PM 33.6000 -115.8014 241° Southwest 482 555 27,100 -2,640 Descending Los Angeles Center
11:07PM 33.5242 -115.9303 235° Southwest 477 549 24,600 -2,400 Descending Los Angeles Center
11:08PM 33.4386 -116.0442 228° Southwest 457 526 22,200 -2,520 Descending Los Angeles Center
11:09PM 33.3400 -116.1350 218° Southwest 448 516 19,500 -2,700 Descending Los Angeles Center
11:10PM 33.2433 -116.2244 218° Southwest 443 510 16,700 -2,940 Descending Los Angeles Center
11:11PM 33.1308 -116.3292 218° Southwest 433 498 13,500 -2,040 Descending Los Angeles Center
11:12PM 33.0508 -116.4017 217° Southwest 394 453 12,500 -720 Descending Los Angeles Center
11:13PM 32.9744 -116.4614 213° Southwest 342 394 12,000 -240 Descending Los Angeles Center
11:14PM 32.8928 -116.5192 211° Southwest 340 391 12,000 -60 Level Los Angeles Center
11:15PM 32.7958 -116.5758 206° Southwest 332 382 11,900 -1,080 Descending Los Angeles Center
11:16PM 32.7000 -116.6114 197° South 319 367 9,600 -2,340 Descending Los Angeles Center
11:17PM 32.6808 -116.7014 256° West 296 341 6,600 -1,800 Descending Los Angeles Center
11:18PM 32.6775 -116.7933 268° West 284 327 5,900 -1,200 Descending Los Angeles Center
11:19PM 32.6725 -116.8914 267° West 256 295 4,100 -1,260 Descending Los Angeles Center
11:20PM 32.6667 -116.9333 261° West 235 270 3,900 -360 Descending Southern California TRACON